Time;durP1;ratioP1;P1;durP2;ratioP2;P2;SDS_P1;SDS_P2;PMS_P1;PMS_P2;Temp;Humidity;BMP_temperature;BMP_pressure;BME280_temperature;BME280_humidity;BME280_pressure;Samples;Min_cycle;Max_cycle;Signal;HPM_P1;HPM_P2
2021/01/21 05:32:07;;;;;;;0.82;0.70;;;6.20;99.90;;;;;;10041659;23;20505;-94
2021/01/21 05:37:14;;;;;;;7.03;2.90;;;6.20;99.90;;;;;;9989982;29;20058;-93
2021/01/21 05:42:17;;;;;;;4.13;0.70;;;6.20;99.90;;;;;;9983449;29;20060;-93
2021/01/21 05:47:19;;;;;;;2.63;0.95;;;6.20;99.90;;;;;;9954014;29;20058;-94
2021/01/21 05:52:21;;;;;;;6.93;1.00;;;6.20;99.90;;;;;;9990928;29;20058;-93
2021/01/21 05:57:23;;;;;;;5.38;0.90;;;6.00;99.90;;;;;;9990627;29;20064;-93
2021/01/21 06:02:25;;;;;;;3.53;1.10;;;6.20;99.90;;;;;;9989365;29;20485;-93
2021/01/21 06:07:33;;;;;;;5.00;1.20;;;6.30;99.90;;;;;;9954411;29;20066;-93
2021/01/21 06:12:36;;;;;;;11.50;1.25;;;6.30;99.90;;;;;;9953413;29;20149;-93
2021/01/21 06:17:38;;;;;;;5.25;1.42;;;6.30;99.90;;;;;;9955973;29;20062;-93
2021/01/21 06:22:42;;;;;;;4.93;1.10;;;6.10;99.90;;;;;;9990893;29;20046;-94
2021/01/21 06:27:46;;;;;;;7.38;1.55;;;6.30;99.90;;;;;;10002307;29;20578;-93
2021/01/21 06:33:03;;;;;;;8.90;1.60;;;6.40;99.90;;;;;;9938818;29;20066;-93
2021/01/21 06:38:10;;;;;;;12.43;1.92;;;6.10;99.90;;;;;;9953053;29;20058;-94
2021/01/21 06:43:18;;;;;;;4.65;1.42;;;6.10;99.90;;;;;;9982715;29;20434;-96
2021/01/21 06:48:20;;;;;;;6.80;1.88;;;6.00;99.90;;;;;;9956395;29;20141;-93
2021/01/21 06:53:22;;;;;;;6.82;1.73;;;5.90;99.90;;;;;;9945826;29;20069;-93
2021/01/21 06:58:46;;;;;;;6.15;1.70;;;5.80;99.90;;;;;;9996241;29;20091;-93
2021/01/21 07:03:48;;;;;;;9.45;1.70;;;5.70;99.90;;;;;;10012050;29;20054;-94
2021/01/21 07:09:11;;;;;;;9.45;1.58;;;5.90;99.90;;;;;;9968091;29;20140;-93
2021/01/21 07:14:17;;;;;;;5.50;1.65;;;5.70;99.90;;;;;;9996841;29;20098;-94
2021/01/21 07:19:34;;;;;;;4.88;1.50;;;5.20;99.90;;;;;;10013194;29;20065;-94
2021/01/21 07:24:53;;;;;;;5.60;1.98;;;5.00;99.90;;;;;;10009835;29;20078;-93
2021/01/21 07:30:20;;;;;;;6.13;1.55;;;5.70;99.90;;;;;;9972604;29;20512;-93
2021/01/21 07:35:36;;;;;;;8.38;1.65;;;5.50;99.90;;;;;;9988662;29;20054;-92
2021/01/21 07:40:47;;;;;;;3.55;1.40;;;5.40;99.90;;;;;;9958627;29;20094;-93
2021/01/21 07:45:48;;;;;;;12.10;2.03;;;5.30;99.90;;;;;;9957614;29;20062;-93
2021/01/21 07:50:52;;;;;;;8.57;1.70;;;5.10;99.90;;;;;;9943145;29;20517;-92
2021/01/21 07:55:55;;;;;;;9.65;1.85;;;5.10;99.90;;;;;;9973476;29;20065;-93
2021/01/21 08:00:58;;;;;;;10.82;2.40;;;5.10;99.90;;;;;;9987214;29;20145;-93
2021/01/21 08:06:04;;;;;;;6.75;2.45;;;5.10;99.90;;;;;;9972383;29;20081;-94
2021/01/21 08:11:14;;;;;;;9.82;2.28;;;5.00;99.90;;;;;;9972754;29;20141;-95
2021/01/21 08:16:17;;;;;;;4.50;1.85;;;5.20;99.90;;;;;;9971825;29;20510;-94
2021/01/21 08:21:24;;;;;;;10.40;2.00;;;5.10;99.90;;;;;;9987152;29;20058;-94
2021/01/21 08:26:31;;;;;;;9.57;2.42;;;5.20;99.90;;;;;;9978846;29;20077;-94
2021/01/21 08:31:42;;;;;;;10.85;1.92;;;5.20;99.90;;;;;;10009810;29;20089;-95
2021/01/21 08:36:44;;;;;;;10.93;2.03;;;5.30;99.90;;;;;;10009261;29;20074;-95
2021/01/21 08:41:52;;;;;;;11.50;2.75;;;5.50;99.90;;;;;;9994043;29;20062;-95
2021/01/21 08:47:01;;;;;;;8.07;1.70;;;5.50;99.90;;;;;;9993479;29;20526;-94
2021/01/21 08:52:10;;;;;;;12.45;2.65;;;5.90;99.90;;;;;;10011151;29;20077;-94
2021/01/21 08:57:14;;;;;;;11.57;2.50;;;6.10;99.90;;;;;;9993452;29;20144;-94
2021/01/21 09:02:42;;;;;;;19.38;2.50;;;6.10;99.90;;;;;;10008165;29;20146;-94
2021/01/21 09:07:43;;;;;;;13.25;2.22;;;6.00;99.90;;;;;;9991990;29;20081;-93
2021/01/21 09:12:45;;;;;;;12.82;3.25;;;6.10;99.90;;;;;;9977687;29;20502;-93
2021/01/21 09:18:05;;;;;;;8.23;2.20;;;6.40;99.90;;;;;;9963694;29;20066;-93
2021/01/21 09:23:20;;;;;;;7.28;2.25;;;6.20;99.90;;;;;;9992414;29;20054;-93
2021/01/21 09:28:22;;;;;;;9.75;2.17;;;6.60;99.90;;;;;;9975325;29;20054;-94
2021/01/21 09:33:26;;;;;;;7.75;2.42;;;6.50;99.90;;;;;;9979161;29;20093;-94
2021/01/21 09:38:28;;;;;;;13.13;2.45;;;6.80;99.90;;;;;;9942143;29;20062;-91
2021/01/21 09:43:30;;;;;;;8.80;2.10;;;6.50;99.90;;;;;;9938964;29;20387;-94
2021/01/21 09:48:37;;;;;;;14.35;2.50;;;6.50;99.90;;;;;;9941848;29;20058;-96
2021/01/21 09:53:39;;;;;;;11.55;2.33;;;6.60;99.90;;;;;;9959332;29;20070;-94
2021/01/21 09:58:41;;;;;;;14.35;2.33;;;6.90;99.90;;;;;;10006942;29;20083;-94
2021/01/21 10:03:43;;;;;;;11.95;2.05;;;6.90;99.90;;;;;;9977407;29;20141;-94
2021/01/21 10:08:44;;;;;;;10.00;1.90;;;7.10;99.90;;;;;;9978057;29;20139;-94
2021/01/21 10:13:46;;;;;;;8.23;2.97;;;7.20;99.90;;;;;;9977320;29;20061;-95
2021/01/21 10:18:47;;;;;;;7.65;2.10;;;7.00;99.90;;;;;;9978108;29;20066;-95
2021/01/21 10:23:50;;;;;;;11.65;2.55;;;;;;;;;;9962139;29;20063;-96
2021/01/21 10:28:51;;;;;;;12.32;2.08;;;7.80;99.90;;;;;;9962237;29;20156;-96
2021/01/21 10:33:53;;;;;;;12.38;2.50;;;8.30;99.90;;;;;;9972216;29;20062;-95
2021/01/21 10:38:55;;;;;;;8.73;1.75;;;7.50;99.90;;;;;;9999408;29;20057;-94
2021/01/21 10:43:57;;;;;;;10.15;1.80;;;8.10;99.90;;;;;;10029472;29;20149;-96
2021/01/21 10:49:01;;;;;;;9.00;1.80;;;7.40;99.90;;;;;;10028844;29;20062;-95
2021/01/21 10:54:03;;;;;;;5.10;2.08;;;7.60;99.90;;;;;;9997568;29;20062;-96
2021/01/21 10:59:06;;;;;;;6.78;2.28;;;7.70;99.90;;;;;;10012988;29;20062;-95
2021/01/21 11:04:08;;;;;;;8.73;2.83;;;8.00;99.90;;;;;;9997533;29;20145;-96
2021/01/21 11:09:09;;;;;;;7.75;2.15;;;7.80;99.90;;;;;;9982105;29;20053;-95
2021/01/21 11:14:11;;;;;;;4.80;1.42;;;7.80;99.90;;;;;;9982365;29;20070;-94
2021/01/21 11:19:13;;;;;;;6.40;2.35;;;8.50;99.90;;;;;;9982921;29;20088;-94
2021/01/21 11:24:15;;;;;;;9.95;1.95;;;8.10;99.90;;;;;;9982127;29;20140;-95
2021/01/21 11:29:16;;;;;;;10.93;2.45;;;8.00;99.90;;;;;;9974017;29;20470;-96
2021/01/21 18:02:55;;;;;;;7.75;3.22;;;7.50;99.90;;;;;;10024922;29;20062;-93
2021/01/21 18:07:58;;;;;;;6.82;1.70;;;7.50;99.90;;;;;;10008519;29;20061;-95
2021/01/21 18:13:01;;;;;;;6.30;1.23;;;7.20;99.90;;;;;;9954592;29;20065;-93
2021/01/21 18:18:06;;;;;;;10.77;1.75;;;7.20;99.90;;;;;;9970418;29;20456;-94
2021/01/21 18:23:08;;;;;;;8.77;2.25;;;7.10;99.90;;;;;;9954715;29;20407;-95
2021/01/21 18:28:10;;;;;;;;;;;7.70;99.90;;;;;;9957657;29;20141;-96
2021/01/21 18:33:12;;;;;;;5.38;1.20;;;6.50;99.90;;;;;;9969125;29;19925;-96
2021/01/21 18:38:14;;;;;;;6.38;1.33;;;6.80;99.90;;;;;;9969242;29;20383;-96
2021/01/21 18:43:16;;;;;;;4.82;1.35;;;7.10;99.90;;;;;;9940993;29;20050;-96
2021/01/21 18:48:19;;;;;;;8.23;2.13;;;7.00;99.90;;;;;;9960805;29;20110;-95
2021/01/21 18:53:21;;;;;;;9.82;2.88;;;6.80;99.90;;;;;;9975117;29;20058;-94
2021/01/21 18:58:23;;;;;;;8.00;1.70;;;6.30;99.90;;;;;;9960396;29;20093;-95
2021/01/21 19:03:24;;;;;;;13.88;1.88;;;6.40;99.90;;;;;;9960465;29;20050;-94
2021/01/21 19:08:26;;;;;;;;;;;6.40;99.90;;;;;;9945997;29;20097;-95
2021/01/21 19:13:28;;;;;;;11.82;2.28;;;6.80;99.90;;;;;;9945158;29;19940;-96
2021/01/21 19:18:29;;;;;;;6.88;1.92;;;6.50;99.90;;;;;;9946280;29;20070;-94
2021/01/21 19:23:31;;;;;;;;;;;6.00;99.90;;;;;;9974852;29;20469;-95
2021/01/21 19:28:32;;;;;;;7.72;2.20;;;6.10;99.90;;;;;;9944490;29;19931;-94
2021/01/21 19:33:34;;;;;;;12.57;2.85;;;6.00;99.90;;;;;;9943927;29;20158;-94
2021/01/21 19:38:36;;;;;;;8.43;1.98;;;6.30;99.90;;;;;;9944247;29;20058;-95
2021/01/21 19:43:38;;;;;;;6.22;2.25;;;6.20;99.90;;;;;;9945235;29;20054;-95
2021/01/21 19:48:39;;;;;;;8.70;1.92;;;5.90;99.90;;;;;;9943932;29;20151;-96
2021/01/21 19:53:41;;;;;;;7.95;2.25;;;6.10;99.90;;;;;;9957351;29;20058;-96
2021/01/21 19:58:42;;;;;;;9.98;2.85;;;6.20;99.90;;;;;;9943274;29;20084;-95
2021/01/21 20:03:44;;;;;;;13.45;3.00;;;6.40;99.90;;;;;;9972744;29;20506;-96
2021/01/21 20:08:46;;;;;;;8.35;2.35;;;5.60;99.90;;;;;;9943305;29;20126;-96
2021/01/21 20:13:48;;;;;;;6.15;1.90;;;6.40;99.90;;;;;;9943799;29;20086;-96
2021/01/21 20:18:49;;;;;;;10.75;2.50;;;6.50;99.90;;;;;;9959648;29;20140;-95
2021/01/21 20:23:52;;;;;;;8.05;2.90;;;5.80;99.90;;;;;;9994842;29;20141;-94
2021/01/21 20:28:54;;;;;;;11.07;2.72;;;5.60;99.90;;;;;;10010002;29;20054;-94
2021/01/21 20:33:55;;;;;;;7.45;2.42;;;6.00;99.90;;;;;;10009628;29;20058;-95
2021/01/21 20:38:57;;;;;;;11.20;3.65;;;5.80;99.90;;;;;;9995003;29;20084;-95
2021/01/21 20:43:59;;;;;;;11.43;3.47;;;5.70;99.90;;;;;;9993869;29;20472;-95
2021/01/21 20:49:02;;;;;;;9.75;3.95;;;6.50;99.90;;;;;;10008996;29;20062;-95
2021/01/21 20:54:04;;;;;;;9.30;3.17;;;6.10;99.90;;;;;;9979179;29;20518;-95
2021/01/21 20:59:05;;;;;;;9.65;3.58;;;6.00;99.90;;;;;;10008821;29;20093;-94
2021/01/21 21:04:07;;;;;;;9.80;3.83;;;5.90;99.90;;;;;;10009336;29;20058;-95
2021/01/21 21:09:09;;;;;;;9.57;3.70;;;6.20;99.90;;;;;;10008289;29;20057;-96
2021/01/21 21:14:10;;;;;;;;;;;7.00;99.90;;;;;;9995072;29;20058;-95
2021/01/21 21:19:12;;;;;;;8.10;2.60;;;6.50;99.90;;;;;;9993436;29;19924;-94
2021/01/21 21:24:13;;;;;;;6.97;2.78;;;6.50;99.90;;;;;;9992948;29;20057;-96
2021/01/21 21:29:15;;;;;;;;;;;7.00;99.90;;;;;;9993138;29;20510;-95
2021/01/21 21:34:16;;;;;;;5.40;2.58;;;7.30;99.90;;;;;;9994613;29;19931;-95
2021/01/21 21:39:18;;;;;;;4.07;2.42;;;7.50;99.90;;;;;;10007313;29;20057;-94
2021/01/21 21:44:19;;;;;;;4.40;2.78;;;7.00;99.90;;;;;;10007004;29;20141;-96
2021/01/21 21:49:21;;;;;;;3.28;2.67;;;7.50;99.90;;;;;;9992569;29;20148;-95
2021/01/21 21:54:22;;;;;;;3.33;2.55;;;8.00;99.90;;;;;;9977219;29;20089;-95
2021/01/21 21:59:24;;;;;;;6.07;2.10;;;7.50;99.90;;;;;;9977188;29;20145;-95
2021/01/21 22:04:25;;;;;;;;;;;7.00;99.90;;;;;;10007110;29;20058;-95
2021/01/21 22:09:28;;;;;;;;;;;7.50;99.90;;;;;;9977683;29;19924;-96
2021/01/21 22:14:29;;;;;;;5.45;3.88;;;7.20;99.90;;;;;;10006834;29;19979;-94
2021/01/21 22:19:31;;;;;;;5.13;4.38;;;7.40;99.90;;;;;;9995675;29;20057;-95
2021/01/21 22:24:32;;;;;;;5.13;3.60;;;6.90;99.90;;;;;;10014600;29;20137;-95
2021/01/21 22:29:34;;;;;;;4.40;2.78;;;7.60;99.90;;;;;;10000511;29;20137;-96
2021/01/21 22:34:36;;;;;;;2.88;2.30;;;7.40;99.90;;;;;;9998885;29;20417;-96
2021/01/21 22:39:37;;;;;;;6.75;2.72;;;7.40;99.90;;;;;;10014147;29;20093;-94
2021/01/21 22:44:39;;;;;;;6.50;3.25;;;7.60;99.90;;;;;;9998365;29;20085;-93
2021/01/21 22:49:40;;;;;;;;;;;8.20;99.90;;;;;;9998765;29;20062;-93
2021/01/21 22:54:42;;;;;;;9.40;3.08;;;8.20;99.90;;;;;;9998615;29;20023;-94
2021/01/21 22:59:43;;;;;;;6.63;2.53;;;8.00;99.90;;;;;;9998547;29;20141;-95
2021/01/21 23:04:45;;;;;;;8.95;2.50;;;8.60;99.90;;;;;;9998219;29;20058;-93
2021/01/21 23:09:46;;;;;;;;;;;8.70;99.90;;;;;;9983150;29;20145;-92
2021/01/21 23:14:49;;;;;;;7.75;2.33;;;8.30;99.90;;;;;;9983185;29;19924;-94
2021/01/21 23:19:51;;;;;;;10.70;2.30;;;8.30;99.90;;;;;;9997122;29;20081;-93
2021/01/21 23:24:52;;;;;;;6.63;2.05;;;8.40;99.90;;;;;;10012254;29;20061;-93
2021/01/21 23:29:54;;;;;;;5.90;1.75;;;8.50;99.90;;;;;;10012477;29;20062;-94
2021/01/21 23:34:55;;;;;;;3.92;1.40;;;8.40;99.90;;;;;;9996660;29;20438;-93
2021/01/21 23:39:57;;;;;;;5.53;1.85;;;9.00;99.90;;;;;;9998028;29;20066;-93
2021/01/21 23:44:58;;;;;;;2.70;1.48;;;8.40;99.90;;;;;;9996251;29;20150;-94
2021/01/21 23:50:00;;;;;;;4.35;1.63;;;8.60;99.90;;;;;;9999636;24;20403;-91
2021/01/21 23:55:04;;;;;;;5.65;1.50;;;8.40;99.90;;;;;;10008303;29;20057;-91
